NVSC

Sola Airport

Sola, Vanuatu
TAF NVSC 162220Z 1700/1724 10008KT 9999 SCT020 PROB40 INTER 1700/1706 8000 -TSRA BKN018 FEW025CB
Issued Valid From Valid To
Jan-16 @ 22:20 UTC
(7 hours ago)
Jan-17 @ 00:00 UTC
(5 hours ago)
Jan-18 @ 00:00 UTC
(in 19 hours)
Jan-17 @ 00:00 to Jan-18 @ 00:00
TAF NVSC 162220Z 1700/1724 10008KT 9999 SCT020
Wind Visibility Clouds
100° at 8 knots 10,000+ meters
  • Scattered at 2,000' AGL
Temporary  (Probability 40%) Jan-17 @ 00:00 to Jan-17 @ 06:00
PROB40 INTER 1700/1706 8000 -TSRA BKN018 FEW025CB
Visibility Clouds Conditions
7,998 meters
  • Broken at 1,800' AGL
  • Few at 2,500' AGL
  • Light Thunderstorm
  • Light Rain
TAF NVSC 162220Z 1700/1724 10008KT 9999 SCT020 PROB40 INTER 1700/1706 8000 -TSRA BKN018 FEW025CB
Issued Jan-16 @ 22:20 UTC
(7 hours ago)
Valid From Jan-17 @ 00:00 UTC
(5 hours ago)
Valid To Jan-18 @ 00:00 UTC
(in 19 hours)
Jan-17 @ 00:00 - Jan-18 @ 00:00
Wind Visibility
100° at 8 knots 10,000+ meters
Clouds
  • Scattered at 2,000' AGL
Probability 40% Temporary Jan-17 @ 00:00 - Jan-17 @ 06:00
Clouds
  • Broken at 1,800' AGL
  • Few at 2,500' AGL
Conditions
  • Light Thunderstorm
  • Light Rain